Time;durP1;ratioP1;P1;durP2;ratioP2;P2;SDS_P1;SDS_P2;PMS_P1;PMS_P2;Temp;Humidity;BMP_temperature;BMP_pressure;BME280_temperature;BME280_humidity;BME280_pressure;Samples;Min_cycle;Max_cycle;Signal;HPM_P1;HPM_P2
2023/05/02 00:02:32;;;;;;;8.65;5.18;;;;;;;-146.07;100.00;70291.31;10429898;28;20094;-75
2023/05/02 00:07:32;;;;;;;5.88;4.53;;;;;;;-146.07;100.00;70291.31;10430027;28;20063;-75
2023/05/02 00:12:33;;;;;;;10.38;5.03;;;;;;;-146.07;100.00;70291.31;10430001;28;20542;-76
2023/05/02 00:17:34;;;;;;;6.38;5.00;;;;;;;-146.07;100.00;70291.31;10429704;28;20033;-75
2023/05/02 00:22:34;;;;;;;6.18;4.65;;;;;;;-146.07;100.00;70291.31;10429436;28;20036;-75
2023/05/02 00:27:35;;;;;;;8.80;5.57;;;;;;;-146.07;100.00;70291.31;10429454;28;20044;-77
2023/05/02 00:32:35;;;;;;;7.82;5.43;;;;;;;-146.07;100.00;70291.31;10429823;28;20036;-78
2023/05/02 00:37:36;;;;;;;8.93;5.43;;;;;;;-146.07;100.00;70291.31;10429871;28;20052;-77
2023/05/02 00:42:37;;;;;;;9.18;4.78;;;;;;;-146.07;100.00;70291.31;10415621;28;20034;-76
2023/05/02 00:47:38;;;;;;;8.88;5.18;;;;;;;-146.07;100.00;70291.31;10426114;28;20025;-77
2023/05/02 00:52:38;;;;;;;5.75;4.75;;;;;;;-146.07;100.00;70291.31;10417610;28;20021;-78
2023/05/02 00:57:39;;;;;;;7.10;5.43;;;;;;;-146.07;100.00;70291.31;10429755;28;20067;-76
2023/05/02 01:02:47;;;;;;;10.95;5.85;;;;;;;-146.07;100.00;70291.31;10428130;28;20033;-77
2023/05/02 01:08:18;;;;;;;10.48;5.80;;;;;;;-146.07;100.00;70291.31;10400273;28;20024;-76
2023/05/02 01:13:21;;;;;;;7.07;5.47;;;;;;;-146.07;100.00;70291.31;10412824;28;20399;-77
2023/05/02 01:18:24;;;;;;;8.20;5.47;;;;;;;-146.07;100.00;70291.31;10400459;28;20036;-77
2023/05/02 01:23:40;;;;;;;7.38;5.30;;;;;;;-146.07;100.00;70291.31;10427998;28;20032;-77
2023/05/02 01:29:07;;;;;;;8.57;5.97;;;;;;;-146.07;100.00;70291.31;10424817;28;20078;-73
2023/05/02 01:34:09;;;;;;;8.90;6.15;;;;;;;-146.07;100.00;70291.31;10426549;28;20029;-72
2023/05/02 01:39:14;;;;;;;18.73;7.25;;;;;;;-146.07;100.00;70291.31;10425725;28;20106;-70
2023/05/02 01:44:17;;;;;;;8.15;5.85;;;;;;;-146.07;100.00;70291.31;10427824;28;20025;-77
2023/05/02 01:49:19;;;;;;;11.40;6.45;;;;;;;-146.07;100.00;70291.31;10424458;28;20028;-77
2023/05/02 01:54:23;;;;;;;7.15;6.00;;;;;;;-146.07;100.00;70291.31;10433795;28;20024;-76
2023/05/02 01:59:26;;;;;;;9.07;6.40;;;;;;;-146.07;100.00;70291.31;10430272;28;20446;-77
2023/05/02 02:04:28;;;;;;;12.13;8.15;;;;;;;-146.07;100.00;70291.31;10423168;28;20034;-77
2023/05/02 02:09:30;;;;;;;8.05;5.40;;;;;;;-146.07;100.00;70291.31;10401847;28;20040;-76
2023/05/02 02:14:35;;;;;;;9.15;6.68;;;;;;;-146.07;100.00;70291.31;10426097;28;20082;-76
2023/05/02 02:19:38;;;;;;;8.68;6.20;;;;;;;-146.07;100.00;70291.31;10429831;28;20095;-76
2023/05/02 02:24:40;;;;;;;8.32;6.10;;;;;;;-146.07;100.00;70291.31;10418362;28;20025;-75
2023/05/02 02:29:40;;;;;;;12.30;6.95;;;;;;;-146.07;100.00;70291.31;10426306;28;20052;-75
2023/05/02 02:34:41;;;;;;;9.38;6.82;;;;;;;-146.07;100.00;70291.31;10428263;28;20028;-76
2023/05/02 02:39:59;;;;;;;10.02;6.97;;;;;;;-146.07;100.00;70291.31;10427382;28;20064;-76
2023/05/02 02:45:18;;;;;;;;;;;;;;;-146.07;100.00;70291.31;10427910;28;20074;-76
2023/05/02 02:50:37;;;;;;;9.57;5.93;;;;;;;-146.07;100.00;70291.31;10427470;28;19913;-76
2023/05/02 02:55:45;;;;;;;10.82;7.07;;;;;;;-146.07;100.00;70291.31;10388958;28;20495;-76
2023/05/02 03:00:48;;;;;;;10.63;6.97;;;;;;;-146.07;100.00;70291.31;10434792;28;20523;-77
2023/05/02 03:05:49;;;;;;;9.27;6.90;;;;;;;-146.07;100.00;70291.31;10435870;28;20116;-76
2023/05/02 03:10:50;;;;;;;11.38;7.05;;;;;;;-146.07;100.00;70291.31;10417781;28;20119;-76
2023/05/02 03:15:50;;;;;;;10.60;8.05;;;;;;;-146.07;100.00;70291.31;10414489;28;20033;-76
2023/05/02 03:20:51;;;;;;;13.13;7.60;;;;;;;-146.07;100.00;70291.31;10426388;28;20032;-76
2023/05/02 03:25:52;;;;;;;12.88;7.80;;;;;;;-146.07;100.00;70291.31;10434376;28;20035;-76
2023/05/02 03:30:52;;;;;;;9.10;7.05;;;;;;;-146.07;100.00;70291.31;10433615;28;20037;-76
2023/05/02 03:35:53;;;;;;;12.68;8.63;;;;;;;-146.07;100.00;70291.31;10434771;28;20471;-76
2023/05/02 03:40:56;;;;;;;13.95;8.77;;;;;;;-146.07;100.00;70291.31;10435135;28;20049;-77
2023/05/02 03:46:02;;;;;;;9.18;7.32;;;;;;;-146.07;100.00;70291.31;10434822;28;20044;-77
2023/05/02 03:51:07;;;;;;;13.10;9.20;;;;;;;-146.07;100.00;70291.31;10380776;28;20064;-79
2023/05/02 03:56:07;;;;;;;10.68;7.65;;;;;;;23.18;41.57;94817.72;10373614;28;20029;-75
2023/05/02 04:01:15;;;;;;;12.30;7.05;;;;;;;10.06;100.00;95138.88;10390400;28;20071;-74
2023/05/02 04:06:15;;;;;;;10.85;7.45;;;;;;;10.09;100.00;95138.38;10409941;28;20561;-77
2023/05/02 04:11:16;;;;;;;14.35;6.97;;;;;;;10.13;100.00;95147.53;10409855;28;20555;-78
2023/05/02 04:16:16;;;;;;;14.63;7.07;;;;;;;10.12;100.00;95140.53;10428329;28;20439;-76
2023/05/02 04:21:17;;;;;;;12.93;6.20;;;;;;;10.16;100.00;95140.81;10408223;28;20035;-76
2023/05/02 04:26:17;;;;;;;7.78;6.38;;;;;;;-146.07;100.00;70291.31;10426032;28;20658;-77
2023/05/02 04:31:17;;;;;;;11.82;6.88;;;;;;;-146.07;100.00;70291.31;10425295;28;20028;-75
2023/05/02 04:36:18;;;;;;;11.68;5.72;;;;;;;-146.07;100.00;70291.31;10387865;28;20098;-71
2023/05/02 04:41:20;;;;;;;9.43;6.55;;;;;;;-146.07;100.00;70291.31;10355921;28;20705;-72
2023/05/02 04:46:20;;;;;;;7.80;5.85;;;;;;;-146.07;100.00;70291.31;10367489;28;20078;-72
2023/05/02 04:51:21;;;;;;;6.80;5.43;;;;;;;-146.07;100.00;70291.31;10363161;28;20376;-71
2023/05/02 04:56:21;;;;;;;10.35;4.30;;;;;;;-146.07;100.00;70291.31;10427252;28;20337;-72
2023/05/02 05:01:23;;;;;;;14.02;5.70;;;;;;;-146.07;100.00;70291.31;10427153;28;20130;-73
2023/05/02 05:06:23;;;;;;;13.05;5.07;;;;;;;-146.07;100.00;70291.31;10426655;28;20064;-72
2023/05/02 05:11:25;;;;;;;7.97;5.18;;;;;;;-146.07;100.00;70291.31;10423601;28;20112;-72
2023/05/02 05:16:25;;;;;;;8.90;5.60;;;;;;;-146.07;100.00;70291.31;10423516;28;20115;-72
2023/05/02 05:21:26;;;;;;;7.75;4.65;;;;;;;-146.07;100.00;70291.31;10423194;28;20025;-73
2023/05/02 05:26:26;;;;;;;5.97;3.88;;;;;;;-146.07;100.00;70291.31;10423917;28;20064;-73
2023/05/02 05:31:27;;;;;;;6.15;4.53;;;;;;;-146.07;100.00;70291.31;10425986;28;20064;-73
2023/05/02 05:36:27;;;;;;;10.85;3.95;;;;;;;-146.07;100.00;70291.31;10425936;28;20033;-73
2023/05/02 05:41:28;;;;;;;6.90;4.20;;;;;;;-146.07;100.00;70291.31;10424376;28;20053;-73
2023/05/02 05:46:28;;;;;;;5.82;4.10;;;;;;;-146.07;100.00;70291.31;10425748;28;20490;-74
2023/05/02 05:51:30;;;;;;;6.38;3.63;;;;;;;-146.07;100.00;70291.31;10425363;28;20392;-73
2023/05/02 05:56:31;;;;;;;6.72;3.50;;;;;;;-146.07;100.00;70291.31;10425371;28;20032;-73
2023/05/02 06:01:32;;;;;;;4.63;3.65;;;;;;;-146.07;100.00;70291.31;10425355;28;20036;-74
2023/05/02 06:06:33;;;;;;;6.75;3.60;;;;;;;-146.07;100.00;70291.31;10424958;28;20033;-75
2023/05/02 06:12:03;;;;;;;5.55;4.00;;;;;;;-146.07;100.00;70291.31;10424715;28;20025;-75
2023/05/02 06:17:04;;;;;;;10.73;3.55;;;;;;;-146.07;100.00;70291.31;10407764;28;20141;-75
2023/05/02 06:22:05;;;;;;;6.60;3.13;;;;;;;-146.07;100.00;70291.31;10424780;28;20124;-74
2023/05/02 06:27:34;;;;;;;4.55;3.03;;;;;;;-146.07;100.00;70291.31;10424774;28;20438;-75
2023/05/02 06:32:42;;;;;;;4.68;2.90;;;;;;;-146.07;100.00;70291.31;10406084;28;20032;-73
2023/05/02 06:37:43;;;;;;;6.75;2.85;;;;;;;-146.07;100.00;70291.31;10406161;28;20049;-72
2023/05/02 06:42:43;;;;;;;4.00;2.45;;;;;;;-146.07;100.00;70291.31;10424725;28;20377;-74
2023/05/02 06:47:44;;;;;;;5.43;2.47;;;;;;;-146.07;100.00;70291.31;10424301;28;20037;-73
2023/05/02 06:52:45;;;;;;;4.20;2.60;;;;;;;-146.07;100.00;70291.31;10424078;28;20600;-74
2023/05/02 06:57:46;;;;;;;7.88;2.33;;;;;;;-146.07;100.00;70291.31;10424462;28;20024;-73
2023/05/02 07:02:48;;;;;;;5.97;2.00;;;;;;;-146.07;100.00;70291.31;10424657;28;20102;-74
2023/05/02 07:07:48;;;;;;;6.13;1.85;;;;;;;-146.07;100.00;70291.31;10424486;28;20024;-74
2023/05/02 07:12:49;;;;;;;8.48;2.60;;;;;;;-146.07;100.00;70291.31;10425167;28;20644;-74
2023/05/02 07:17:49;;;;;;;6.00;2.08;;;;;;;-146.07;100.00;70291.31;10423990;28;20498;-74
2023/05/02 07:22:50;;;;;;;8.77;2.25;;;;;;;-146.07;100.00;70291.31;10423616;28;20029;-73
2023/05/02 07:27:50;;;;;;;16.15;2.58;;;;;;;-146.07;100.00;70291.31;10423711;28;20028;-73
2023/05/02 07:32:51;;;;;;;7.95;2.30;;;;;;;-146.07;100.00;70291.31;10423623;28;20025;-73
2023/05/02 07:37:51;;;;;;;3.95;2.40;;;;;;;-146.07;100.00;70291.31;10423457;28;20163;-74
2023/05/02 07:42:52;;;;;;;5.43;2.10;;;;;;;-146.07;100.00;70291.31;10422133;28;20364;-74
2023/05/02 07:47:52;;;;;;;6.40;2.03;;;;;;;-146.07;100.00;70291.31;10429581;28;20048;-73
2023/05/02 07:52:55;;;;;;;2.80;1.90;;;;;;;-146.07;100.00;70291.31;10428361;28;20464;-73
2023/05/02 07:57:56;;;;;;;2.63;1.77;;;;;;;-146.07;100.00;70291.31;10430124;28;20271;-73
2023/05/02 08:02:56;;;;;;;2.50;1.80;;;;;;;-146.07;100.00;70291.31;10430124;28;20815;-73
2023/05/02 08:07:57;;;;;;;2.63;1.60;;;;;;;-146.07;100.00;70291.31;10429517;28;20025;-73
2023/05/02 08:12:57;;;;;;;2.03;1.57;;;;;;;-146.07;100.00;70291.31;10429673;28;20028;-73
2023/05/02 08:17:58;;;;;;;4.57;1.33;;;;;;;-146.07;100.00;70291.31;10428591;28;20665;-73
2023/05/02 08:22:59;;;;;;;5.10;1.60;;;;;;;-146.07;100.00;70291.31;10429236;28;20283;-73
2023/05/02 08:27:59;;;;;;;3.60;1.73;;;;;;;-146.07;100.00;70291.31;10429205;28;20016;-72
2023/05/02 08:33:00;;;;;;;6.10;1.58;;;;;;;-146.07;100.00;70291.31;10429085;28;20043;-72
2023/05/02 08:38:01;;;;;;;5.80;1.70;;;;;;;-146.07;100.00;70291.31;10429496;28;20523;-72
2023/05/02 08:43:03;;;;;;;2.72;1.55;;;;;;;-146.07;100.00;70291.31;10429867;28;20029;-72
2023/05/02 08:48:15;;;;;;;6.25;1.80;;;;;;;-146.07;100.00;70291.31;10412165;28;20036;-73
2023/05/02 08:53:17;;;;;;;3.08;1.50;;;;;;;-146.07;100.00;70291.31;10428947;28;20045;-73
2023/05/02 08:58:18;;;;;;;7.88;2.15;;;;;;;-146.07;100.00;70291.31;10428613;28;20431;-72
2023/05/02 09:03:39;;;;;;;9.33;2.23;;;;;;;-146.07;100.00;70291.31;10427185;28;20036;-74
2023/05/02 09:08:41;;;;;;;2.53;1.83;;;;;;;-146.07;100.00;70291.31;10427572;28;20268;-73
2023/05/02 09:13:46;;;;;;;3.33;1.60;;;;;;;-146.07;100.00;70291.31;10409591;28;20025;-72
2023/05/02 09:18:49;;;;;;;4.93;1.67;;;;;;;-146.07;100.00;70291.31;10427469;28;20033;-73
2023/05/02 09:24:00;;;;;;;3.55;1.38;;;;;;;-146.07;100.00;70291.31;10427114;28;20025;-74
2023/05/02 09:29:06;;;;;;;5.30;1.50;;;;;;;-146.07;100.00;70291.31;10409139;28;20024;-73
2023/05/02 09:34:12;;;;;;;7.13;2.03;;;;;;;-146.07;100.00;70291.31;10408452;28;20032;-73
2023/05/02 09:39:15;;;;;;;4.07;1.52;;;;;;;-146.07;100.00;70291.31;10426394;28;20061;-73
2023/05/02 09:44:17;;;;;;;3.60;1.35;;;;;;;-146.07;100.00;70291.31;10426180;28;20033;-74
2023/05/02 09:49:19;;;;;;;7.15;1.58;;;;;;;-146.07;100.00;70291.31;10429038;28;20036;-71
2023/05/02 09:54:39;;;;;;;3.75;1.45;;;;;;;-146.07;100.00;70291.31;10425462;28;20029;-73
2023/05/02 09:59:40;;;;;;;4.80;1.00;;;;;;;-146.07;100.00;70291.31;10407298;28;20066;-74
2023/05/02 10:04:41;;;;;;;4.13;1.20;;;;;;;-146.07;100.00;70291.31;10425107;28;20037;-73
2023/05/02 10:09:47;;;;;;;1.60;1.10;;;;;;;-146.07;100.00;70291.31;10424681;28;20086;-74
2023/05/02 10:14:54;;;;;;;5.00;1.83;;;;;;;-146.07;100.00;70291.31;10407407;28;20021;-74
2023/05/02 10:20:06;;;;;;;1.92;1.15;;;;;;;-146.07;100.00;70291.31;10424942;28;20092;-73
2023/05/02 10:25:07;;;;;;;5.22;1.30;;;;;;;-146.07;100.00;70291.31;10428007;28;20170;-74
2023/05/02 10:30:09;;;;;;;3.10;1.40;;;;;;;-146.07;100.00;70291.31;10407741;28;20032;-74
2023/05/02 10:35:10;;;;;;;2.92;1.10;;;;;;;-146.07;100.00;70291.31;10424947;28;20036;-74
2023/05/02 10:40:12;;;;;;;4.13;1.10;;;;;;;-146.07;100.00;70291.31;10424652;28;20135;-74
2023/05/02 10:45:32;;;;;;;3.45;0.90;;;;;;;-146.07;100.00;70291.31;10407486;28;20072;-74
2023/05/02 10:51:02;;;;;;;4.50;1.67;;;;;;;-146.07;100.00;70291.31;10424771;28;20543;-73
2023/05/02 10:56:15;;;;;;;3.25;1.20;;;;;;;-146.07;100.00;70291.31;10419900;28;20044;-74
2023/05/02 11:01:27;;;;;;;9.95;3.08;;;;;;;-146.07;100.00;70291.31;10424136;28;20041;-73
2023/05/02 11:06:33;;;;;;;4.63;1.10;;;;;;;-146.07;100.00;70291.31;10424440;28;20032;-73
2023/05/02 11:11:40;;;;;;;3.42;1.60;;;;;;;-146.07;100.00;70291.31;10424232;28;20103;-73
2023/05/02 11:16:59;;;;;;;2.88;1.38;;;;;;;-146.07;100.00;70291.31;10423694;28;20036;-72
2023/05/02 11:22:26;;;;;;;2.05;1.30;;;;;;;-146.07;100.00;70291.31;10431304;28;20052;-73
2023/05/02 11:27:36;;;;;;;3.88;1.60;;;;;;;-146.07;100.00;70291.31;10431681;28;20085;-73
2023/05/02 11:32:52;;;;;;;4.72;1.70;;;;;;;-146.07;100.00;70291.31;10431368;28;20029;-73
2023/05/02 11:37:54;;;;;;;3.45;1.98;;;;;;;-146.07;100.00;70291.31;10431317;28;20567;-73
2023/05/02 11:42:56;;;;;;;4.40;2.13;;;;;;;-146.07;100.00;70291.31;10431273;28;20037;-73
2023/05/02 11:47:57;;;;;;;3.10;1.65;;;;;;;-146.07;100.00;70291.31;10431396;28;20090;-72
2023/05/02 11:52:57;;;;;;;3.50;2.00;;;;;;;-146.07;100.00;70291.31;10431718;28;20055;-73
2023/05/02 11:57:58;;;;;;;7.13;2.13;;;;;;;-146.07;100.00;70291.31;10431013;28;20033;-72
2023/05/02 12:02:58;;;;;;;2.28;1.73;;;;;;;-146.07;100.00;70291.31;10430419;28;20036;-72
2023/05/02 12:08:00;;;;;;;6.77;2.10;;;;;;;-146.07;100.00;70291.31;10430788;28;20108;-72
2023/05/02 12:13:05;;;;;;;3.83;1.38;;;;;;;-146.07;100.00;70291.31;10430480;28;20267;-73
2023/05/02 12:18:06;;;;;;;4.57;1.63;;;;;;;-146.07;100.00;70291.31;10429864;28;20095;-72
2023/05/02 12:23:07;;;;;;;7.70;1.70;;;;;;;-146.07;100.00;70291.31;10411470;28;20505;-72
2023/05/02 12:28:09;;;;;;;3.70;1.90;;;;;;;-146.07;100.00;70291.31;10429562;28;20045;-72
2023/05/02 12:33:10;;;;;;;2.45;1.48;;;;;;;-146.07;100.00;70291.31;10428285;28;20044;-73
2023/05/02 12:38:16;;;;;;;4.03;1.58;;;;;;;-146.07;100.00;70291.31;10428740;28;20049;-74
2023/05/02 12:43:18;;;;;;;2.10;1.65;;;;;;;-146.07;100.00;70291.31;10428959;28;20060;-72
2023/05/02 12:48:27;;;;;;;2.47;1.73;;;;;;;-146.07;100.00;70291.31;10411027;28;20032;-74
2023/05/02 12:53:42;;;;;;;4.13;1.60;;;;;;;-146.07;100.00;70291.31;10428832;28;20720;-73
2023/05/02 12:58:45;;;;;;;2.55;1.95;;;;;;;-146.07;100.00;70291.31;10429075;28;20024;-72
2023/05/02 13:03:52;;;;;;;2.92;1.67;;;;;;;-146.07;100.00;70291.31;10410311;28;20028;-72
2023/05/02 13:08:53;;;;;;;3.70;1.95;;;;;;;-146.07;100.00;70291.31;10428271;28;20073;-70
2023/05/02 13:13:53;;;;;;;4.30;1.55;;;;;;;-146.07;100.00;70291.31;10426687;28;20078;-71
2023/05/02 13:18:54;;;;;;;5.25;1.88;;;;;;;-146.07;100.00;70291.31;10427682;28;20025;-72
2023/05/02 13:23:55;;;;;;;5.75;1.50;;;;;;;-146.07;100.00;70291.31;10427326;28;20435;-72
2023/05/02 13:28:56;;;;;;;4.75;1.73;;;;;;;-146.07;100.00;70291.31;10426480;28;20032;-71
2023/05/02 13:33:56;;;;;;;2.15;1.77;;;;;;;-146.07;100.00;70291.31;10423947;28;20028;-72
2023/05/02 13:38:57;;;;;;;3.45;1.73;;;;;;;-146.07;100.00;70291.31;10422067;28;20056;-71
2023/05/02 13:43:57;;;;;;;4.35;2.00;;;;;;;-146.07;100.00;70291.31;10403767;28;20075;-72
2023/05/02 13:48:58;;;;;;;4.43;1.58;;;;;;;-146.07;100.00;70291.31;10412001;28;20021;-74
2023/05/02 13:54:28;;;;;;;3.10;1.52;;;;;;;-146.07;100.00;70291.31;10403587;28;20495;-83
2023/05/02 13:59:40;;;;;;;7.70;1.70;;;;;;;-146.07;100.00;70291.31;10385771;28;20033;-81
2023/05/02 14:04:41;;;;;;;2.47;1.55;;;;;;;-146.07;100.00;70291.31;10397594;28;20020;-77
2023/05/02 14:09:43;;;;;;;1.83;1.10;;;;;;;-146.07;100.00;70291.31;10393344;28;20039;-75
2023/05/02 14:14:43;;;;;;;3.28;1.00;;;;;;;-146.07;100.00;70291.31;10398198;28;20020;-74
2023/05/02 14:19:44;;;;;;;2.90;1.27;;;;;;;-146.07;100.00;70291.31;10384422;28;20526;-73
2023/05/02 14:24:44;;;;;;;3.13;1.17;;;;;;;-146.07;100.00;70291.31;10399661;28;20043;-73
2023/05/02 14:30:06;;;;;;;1.85;1.42;;;;;;;-146.07;100.00;70291.31;10401894;28;20037;-78
2023/05/02 14:35:07;;;;;;;3.10;1.73;;;;;;;-146.07;100.00;70291.31;10394777;28;20048;-80
2023/05/02 14:40:09;;;;;;;1.83;1.40;;;;;;;-146.07;100.00;70291.31;10358509;28;20041;-78
2023/05/02 14:45:13;;;;;;;4.70;1.30;;;;;;;-146.07;100.00;70291.31;10340133;28;20127;-82
2023/05/02 14:50:13;;;;;;;4.35;1.38;;;;;;;-146.07;100.00;70291.31;10348739;28;20619;-78
2023/05/02 14:55:14;;;;;;;7.38;1.40;;;;;;;-146.07;100.00;70291.31;10355570;28;20511;-70
2023/05/02 15:00:16;;;;;;;3.35;1.30;;;;;;;-146.07;100.00;70291.31;10345279;28;20083;-74
2023/05/02 15:05:17;;;;;;;9.98;1.52;;;;;;;-146.07;100.00;70291.31;10343803;28;20030;-74
2023/05/02 15:10:18;;;;;;;2.38;1.67;;;;;;;-146.07;100.00;70291.31;10343876;28;20041;-76
2023/05/02 15:15:23;;;;;;;5.28;1.70;;;;;;;-146.07;100.00;70291.31;10340708;28;20025;-74
2023/05/02 15:20:24;;;;;;;1.65;1.38;;;;;;;-146.07;100.00;70291.31;10312234;28;20464;-75
2023/05/02 15:25:36;;;;;;;4.05;1.55;;;;;;;-146.07;100.00;70291.31;10311300;28;20389;-75
2023/05/02 15:30:43;;;;;;;3.15;1.33;;;;;;;-146.07;100.00;70291.31;10325885;28;20060;-75
2023/05/02 15:35:55;;;;;;;2.67;1.50;;;;;;;-146.07;100.00;70291.31;10304378;28;20390;-75
2023/05/02 15:40:57;;;;;;;3.72;1.25;;;;;;;-146.07;100.00;70291.31;10328211;28;20072;-75
2023/05/02 15:45:58;;;;;;;3.47;1.40;;;;;;;-146.07;100.00;70291.31;10341680;28;20500;-68
2023/05/02 15:51:09;;;;;;;3.08;1.42;;;;;;;-146.07;100.00;70291.31;10334700;28;20037;-80
2023/05/02 15:56:11;;;;;;;2.10;1.42;;;;;;;-146.07;100.00;70291.31;10321924;28;20187;-84
2023/05/02 16:01:11;;;;;;;1.55;0.90;;;;;;;-146.07;100.00;70291.31;10316661;28;20033;-80
2023/05/02 16:06:12;;;;;;;2.45;1.42;;;;;;;-146.07;100.00;70291.31;10313970;28;20041;-81
2023/05/02 16:11:12;;;;;;;2.47;1.45;;;;;;;-146.07;100.00;70291.31;10310737;28;20068;-71
2023/05/02 16:16:12;;;;;;;2.65;1.30;;;;;;;-146.07;100.00;70291.31;10306769;28;20846;-74
2023/05/02 16:21:13;;;;;;;2.53;1.20;;;;;;;-146.07;100.00;70291.31;10315564;28;20520;-77
2023/05/02 16:26:13;;;;;;;3.53;1.02;;;;;;;-146.07;100.00;70291.31;10310837;28;20042;-72
2023/05/02 16:31:14;;;;;;;3.90;1.40;;;;;;;-146.07;100.00;70291.31;10304944;28;20655;-75
2023/05/02 16:36:15;;;;;;;6.28;1.55;;;;;;;-146.07;100.00;70291.31;10299182;28;20755;-73
2023/05/02 16:41:16;;;;;;;5.28;1.58;;;;;;;-146.07;100.00;70291.31;10366959;28;20432;-75
2023/05/02 16:46:16;;;;;;;3.47;1.48;;;;;;;-146.07;100.00;70291.31;10372822;28;20447;-74
2023/05/02 16:51:17;;;;;;;2.33;1.10;;;;;;;-146.07;100.00;70291.31;10385714;28;20146;-71
2023/05/02 16:56:17;;;;;;;4.20;1.13;;;;;;;-146.07;100.00;70291.31;10380675;28;20040;-75
2023/05/02 17:01:26;;;;;;;4.30;2.00;;;;;;;-146.07;100.00;70291.31;10383434;28;20176;-79
2023/05/02 17:06:26;;;;;;;3.05;1.60;;;;;;;-146.07;100.00;70291.31;10399223;28;20636;-79
2023/05/02 17:11:27;;;;;;;2.70;1.48;;;;;;;-146.07;100.00;70291.31;10382971;28;20496;-79
2023/05/02 17:16:27;;;;;;;3.85;1.52;;;;;;;-146.07;100.00;70291.31;10388032;28;20188;-81
2023/05/02 17:21:40;;;;;;;4.40;1.52;;;;;;;-146.07;100.00;70291.31;10383535;28;20535;-79
2023/05/02 17:26:40;;;;;;;6.03;1.58;;;;;;;-146.07;100.00;70291.31;10389940;28;20033;-79
2023/05/02 17:31:44;;;;;;;1.23;0.70;;;;;;;-146.07;100.00;70291.31;10391801;28;20021;-79
2023/05/02 17:36:45;;;;;;;2.60;1.52;;;;;;;-146.07;100.00;70291.31;10389683;28;20032;-80
2023/05/02 17:41:46;;;;;;;1.65;1.00;;;;;;;-146.07;100.00;70291.31;10386618;28;20049;-80
2023/05/02 17:46:47;;;;;;;1.88;1.15;;;;;;;-146.07;100.00;70291.31;10379033;28;20507;-76
2023/05/02 17:51:47;;;;;;;3.42;1.45;;;;;;;-146.07;100.00;70291.31;10389743;28;20040;-77
2023/05/02 17:56:49;;;;;;;6.13;1.30;;;;;;;-146.07;100.00;70291.31;10381676;28;20034;-75
2023/05/02 18:01:49;;;;;;;8.40;1.17;;;;;;;-146.07;100.00;70291.31;10379899;28;20030;-74
2023/05/02 18:06:50;;;;;;;4.03;1.65;;;;;;;-146.07;100.00;70291.31;10377353;28;20470;-77
2023/05/02 18:11:56;;;;;;;3.53;1.30;;;;;;;-146.07;100.00;70291.31;10381065;28;20013;-76
2023/05/02 18:17:06;;;;;;;2.10;1.30;;;;;;;-146.07;100.00;70291.31;10382444;28;20028;-78
2023/05/02 18:22:07;;;;;;;3.17;1.50;;;;;;;-146.07;100.00;70291.31;10363992;28;20039;-73
2023/05/02 18:27:07;;;;;;;4.75;1.33;;;;;;;-146.07;100.00;70291.31;10376051;28;21564;-73
2023/05/02 18:32:08;;;;;;;5.15;1.42;;;;;;;-146.07;100.00;70291.31;10368372;28;20048;-73
2023/05/02 18:37:09;;;;;;;5.28;1.70;;;;;;;-146.07;100.00;70291.31;10372797;28;20814;-78
2023/05/02 18:42:11;;;;;;;5.70;1.77;;;;;;;-146.07;100.00;70291.31;10380632;28;20029;-73
2023/05/02 18:47:12;;;;;;;5.75;1.45;;;;;;;-146.07;100.00;70291.31;10390063;28;20462;-76
2023/05/02 18:52:13;;;;;;;2.00;1.25;;;;;;;-146.07;100.00;70291.31;10382871;28;20592;-74
2023/05/02 18:57:15;;;;;;;9.15;2.85;;;;;;;-146.07;100.00;70291.31;10396398;28;20033;-85
2023/05/02 19:02:16;;;;;;;4.47;1.65;;;;;;;-146.07;100.00;70291.31;10377751;28;20033;-72
2023/05/02 19:07:16;;;;;;;2.13;1.20;;;;;;;-146.07;100.00;70291.31;10385642;28;20467;-73
2023/05/02 19:12:17;;;;;;;3.72;1.48;;;;;;;-146.07;100.00;70291.31;10378220;28;20268;-77
2023/05/02 19:17:17;;;;;;;2.50;1.48;;;;;;;-146.07;100.00;70291.31;10391726;28;20029;-85
2023/05/02 19:22:20;;;;;;;2.50;1.27;;;;;;;-146.07;100.00;70291.31;10385735;28;20065;-76
2023/05/02 19:27:21;;;;;;;3.72;2.00;;;;;;;-146.07;100.00;70291.31;10369368;28;20071;-80
2023/05/02 19:32:25;;;;;;;7.00;1.65;;;;;;;-146.07;100.00;70291.31;10389525;28;20017;-83
2023/05/02 19:37:25;;;;;;;2.47;1.40;;;;;;;-146.07;100.00;70291.31;10366868;28;20544;-78
2023/05/02 19:42:26;;;;;;;6.10;1.80;;;;;;;-146.07;100.00;70291.31;10396125;28;20384;-79
2023/05/02 19:47:27;;;;;;;3.10;1.90;;;;;;;-146.07;100.00;70291.31;10393187;28;20128;-73
2023/05/02 19:52:28;;;;;;;2.28;1.20;;;;;;;-146.07;100.00;70291.31;10390223;28;20368;-73
2023/05/02 19:57:28;;;;;;;2.85;2.22;;;;;;;-146.07;100.00;70291.31;10381017;28;20419;-73
2023/05/02 20:02:29;;;;;;;5.35;1.75;;;;;;;-146.07;100.00;70291.31;10363628;28;20135;-73
2023/05/02 20:07:30;;;;;;;2.22;1.65;;;;;;;-146.07;100.00;70291.31;10350635;28;20478;-73
2023/05/02 20:12:30;;;;;;;6.65;1.80;;;;;;;-146.07;100.00;70291.31;10353325;28;20040;-72
2023/05/02 20:17:31;;;;;;;3.08;1.75;;;;;;;-146.07;100.00;70291.31;10355409;28;20017;-70
2023/05/02 20:22:32;;;;;;;6.13;1.50;;;;;;;-146.07;100.00;70291.31;10354219;28;20614;-74
2023/05/02 20:27:33;;;;;;;7.18;1.55;;;;;;;-146.07;100.00;70291.31;10361994;28;20116;-85
2023/05/02 20:32:35;;;;;;;3.78;1.70;;;;;;;-146.07;100.00;70291.31;10341946;28;20380;-72
2023/05/02 20:37:35;;;;;;;10.93;1.77;;;;;;;-146.07;100.00;70291.31;10351691;28;20045;-69
2023/05/02 20:42:39;;;;;;;3.25;1.70;;;;;;;-146.07;100.00;70291.31;10380898;28;20443;-70
2023/05/02 20:47:39;;;;;;;5.05;1.52;;;;;;;-146.07;100.00;70291.31;10386393;28;20113;-70
2023/05/02 20:52:40;;;;;;;5.20;1.88;;;;;;;-146.07;100.00;70291.31;10391738;28;20021;-70
2023/05/02 20:57:40;;;;;;;3.50;1.60;;;;;;;-146.07;100.00;70291.31;10386665;28;20057;-72
2023/05/02 21:02:41;;;;;;;2.40;1.65;;;;;;;-146.07;100.00;70291.31;10382916;28;20018;-72
2023/05/02 21:07:41;;;;;;;2.60;1.40;;;;;;;-146.07;100.00;70291.31;10389650;28;20384;-78
2023/05/02 21:12:42;;;;;;;2.88;1.35;;;;;;;-146.07;100.00;70291.31;10376490;28;20033;-72
2023/05/02 21:17:42;;;;;;;1.73;1.30;;;;;;;-146.07;100.00;70291.31;10379870;28;20037;-72
2023/05/02 21:22:43;;;;;;;4.60;1.58;;;;;;;-146.07;100.00;70291.31;10377919;28;20295;-70
2023/05/02 21:27:43;;;;;;;10.52;1.60;;;;;;;-146.07;100.00;70291.31;10377134;28;20040;-70
2023/05/02 21:32:44;;;;;;;3.78;1.33;;;;;;;-146.07;100.00;70291.31;10371802;28;20429;-71
2023/05/02 21:37:45;;;;;;;5.03;1.67;;;;;;;-146.07;100.00;70291.31;10383073;28;20757;-69
2023/05/02 21:42:45;;;;;;;4.22;1.48;;;;;;;-146.07;100.00;70291.31;10375268;28;20662;-74
2023/05/02 21:47:46;;;;;;;6.50;1.73;;;;;;;-146.07;100.00;70291.31;10366759;28;20443;-74
2023/05/02 21:52:46;;;;;;;3.03;1.13;;;;;;;-146.07;100.00;70291.31;10366170;28;20445;-74
2023/05/02 21:57:47;;;;;;;2.08;1.23;;;;;;;-146.07;100.00;70291.31;10376652;28;20075;-75
2023/05/02 22:02:48;;;;;;;3.20;1.75;;;;;;;-146.07;100.00;70291.31;10370534;28;20380;-74
2023/05/02 22:07:48;;;;;;;1.77;1.05;;;;;;;-146.07;100.00;70291.31;10379661;28;20503;-74
2023/05/02 22:12:49;;;;;;;2.58;1.95;;;;;;;-146.07;100.00;70291.31;10373636;28;20027;-74
2023/05/02 22:17:49;;;;;;;5.75;1.63;;;;;;;-146.07;100.00;70291.31;10364892;28;20049;-73
2023/05/02 22:22:50;;;;;;;2.78;1.40;;;;;;;-146.07;100.00;70291.31;10373914;28;20379;-73
2023/05/02 22:27:50;;;;;;;3.17;2.00;;;;;;;-146.07;100.00;70291.31;10371907;28;20083;-73
2023/05/02 22:32:51;;;;;;;5.80;1.88;;;;;;;-146.07;100.00;70291.31;10373472;28;20025;-73
2023/05/02 22:37:51;;;;;;;8.83;1.63;;;;;;;-146.07;100.00;70291.31;10372229;28;20115;-72
2023/05/02 22:42:52;;;;;;;7.70;1.75;;;;;;;-146.07;100.00;70291.31;10396335;28;20306;-72